sensor_id;sensor_type;location;lat;lon;timestamp;pressure;altitude;pressure_sealevel;temperature;humidity
33265;BME280;31404;53.974;-1.086;2023-04-28T00:00:35;100992.33;;;4.98;100.00
33265;BME280;31404;53.974;-1.086;2023-04-28T00:05:34;100986.48;;;4.64;100.00
33265;BME280;31404;53.974;-1.086;2023-04-28T00:10:35;100981.55;;;4.19;100.00
33265;BME280;31404;53.974;-1.086;2023-04-28T00:15:35;100971.82;;;4.61;100.00
33265;BME280;31404;53.974;-1.086;2023-04-28T00:20:34;100965.68;;;4.23;100.00
33265;BME280;31404;53.974;-1.086;2023-04-28T00:30:34;100962.91;;;4.41;100.00
33265;BME280;31404;53.974;-1.086;2023-04-28T00:35:35;100954.21;;;5.11;100.00
33265;BME280;31404;53.974;-1.086;2023-04-28T00:40:35;100950.23;;;4.42;100.00
33265;BME280;31404;53.974;-1.086;2023-04-28T00:45:35;100943.61;;;4.40;100.00
33265;BME280;31404;53.974;-1.086;2023-04-28T00:50:35;100935.09;;;4.26;100.00
33265;BME280;31404;53.974;-1.086;2023-04-28T00:55:34;100929.09;;;4.52;100.00
33265;BME280;31404;53.974;-1.086;2023-04-28T01:05:35;100905.83;;;5.68;100.00
33265;BME280;31404;53.974;-1.086;2023-04-28T01:10:35;100898.30;;;4.73;100.00
33265;BME280;31404;53.974;-1.086;2023-04-28T01:15:35;100898.77;;;4.93;100.00
33265;BME280;31404;53.974;-1.086;2023-04-28T01:20:34;100899.88;;;5.64;100.00
33265;BME280;31404;53.974;-1.086;2023-04-28T01:25:34;100894.47;;;4.33;100.00
33265;BME280;31404;53.974;-1.086;2023-04-28T01:30:34;100888.33;;;5.79;100.00
33265;BME280;31404;53.974;-1.086;2023-04-28T01:35:34;100878.74;;;5.00;100.00
33265;BME280;31404;53.974;-1.086;2023-04-28T01:40:34;100874.11;;;5.02;100.00
33265;BME280;31404;53.974;-1.086;2023-04-28T01:45:34;100870.57;;;5.20;100.00
33265;BME280;31404;53.974;-1.086;2023-04-28T01:50:34;100867.22;;;5.00;100.00
33265;BME280;31404;53.974;-1.086;2023-04-28T01:55:35;100862.74;;;4.31;100.00
33265;BME280;31404;53.974;-1.086;2023-04-28T02:00:35;100859.22;;;4.49;100.00
33265;BME280;31404;53.974;-1.086;2023-04-28T02:05:35;100852.73;;;4.26;100.00
33265;BME280;31404;53.974;-1.086;2023-04-28T02:10:35;100855.74;;;4.33;100.00
33265;BME280;31404;53.974;-1.086;2023-04-28T02:20:35;100856.62;;;6.55;100.00
33265;BME280;31404;53.974;-1.086;2023-04-28T02:25:35;100863.93;;;5.33;100.00
33265;BME280;31404;53.974;-1.086;2023-04-28T02:30:35;100859.90;;;5.38;100.00
33265;BME280;31404;53.974;-1.086;2023-04-28T02:40:34;100853.86;;;5.32;100.00
33265;BME280;31404;53.974;-1.086;2023-04-28T02:45:34;100851.37;;;5.14;100.00
33265;BME280;31404;53.974;-1.086;2023-04-28T02:50:35;100841.61;;;5.57;100.00
33265;BME280;31404;53.974;-1.086;2023-04-28T02:55:35;100832.59;;;5.99;100.00
33265;BME280;31404;53.974;-1.086;2023-04-28T03:00:35;100827.70;;;6.35;100.00
33265;BME280;31404;53.974;-1.086;2023-04-28T03:05:35;100832.27;;;5.25;100.00
33265;BME280;31404;53.974;-1.086;2023-04-28T03:10:35;100821.16;;;4.67;100.00
33265;BME280;31404;53.974;-1.086;2023-04-28T03:15:35;100817.77;;;4.10;100.00
33265;BME280;31404;53.974;-1.086;2023-04-28T03:20:35;100815.85;;;3.93;100.00
33265;BME280;31404;53.974;-1.086;2023-04-28T03:25:35;100817.85;;;4.77;100.00
33265;BME280;31404;53.974;-1.086;2023-04-28T03:30:35;100817.82;;;4.35;100.00
33265;BME280;31404;53.974;-1.086;2023-04-28T03:35:35;100816.46;;;4.74;100.00
33265;BME280;31404;53.974;-1.086;2023-04-28T03:40:35;100812.00;;;4.33;100.00
33265;BME280;31404;53.974;-1.086;2023-04-28T03:45:35;100809.42;;;5.48;100.00
33265;BME280;31404;53.974;-1.086;2023-04-28T03:50:35;100799.28;;;5.71;100.00
33265;BME280;31404;53.974;-1.086;2023-04-28T03:55:35;100806.29;;;5.16;100.00
33265;BME280;31404;53.974;-1.086;2023-04-28T04:00:35;100804.00;;;5.92;100.00
33265;BME280;31404;53.974;-1.086;2023-04-28T04:05:35;100807.26;;;4.08;100.00
33265;BME280;31404;53.974;-1.086;2023-04-28T04:10:34;100803.61;;;4.75;100.00
33265;BME280;31404;53.974;-1.086;2023-04-28T04:15:34;100796.02;;;5.14;100.00
33265;BME280;31404;53.974;-1.086;2023-04-28T04:20:35;100796.26;;;5.18;100.00
33265;BME280;31404;53.974;-1.086;2023-04-28T04:25:35;100793.47;;;4.71;100.00
33265;BME280;31404;53.974;-1.086;2023-04-28T04:30:37;100784.74;;;4.35;100.00
33265;BME280;31404;53.974;-1.086;2023-04-28T04:35:35;100784.97;;;5.27;100.00
33265;BME280;31404;53.974;-1.086;2023-04-28T04:40:34;100781.32;;;5.12;100.00
33265;BME280;31404;53.974;-1.086;2023-04-28T04:45:35;100776.35;;;7.07;100.00
33265;BME280;31404;53.974;-1.086;2023-04-28T04:50:34;100776.34;;;6.93;100.00
33265;BME280;31404;53.974;-1.086;2023-04-28T04:55:35;100772.75;;;8.10;100.00
33265;BME280;31404;53.974;-1.086;2023-04-28T05:00:35;100776.66;;;7.80;100.00
33265;BME280;31404;53.974;-1.086;2023-04-28T05:05:34;100779.05;;;7.16;100.00
33265;BME280;31404;53.974;-1.086;2023-04-28T05:10:34;100777.96;;;7.02;100.00
33265;BME280;31404;53.974;-1.086;2023-04-28T05:15:34;100783.22;;;6.71;100.00
33265;BME280;31404;53.974;-1.086;2023-04-28T05:20:35;100797.05;;;5.25;100.00
33265;BME280;31404;53.974;-1.086;2023-04-28T05:25:38;100800.21;;;6.02;100.00
33265;BME280;31404;53.974;-1.086;2023-04-28T05:30:35;100806.48;;;7.06;100.00
33265;BME280;31404;53.974;-1.086;2023-04-28T05:35:34;100821.18;;;5.81;100.00
33265;BME280;31404;53.974;-1.086;2023-04-28T05:40:35;100828.50;;;7.59;100.00
33265;BME280;31404;53.974;-1.086;2023-04-28T05:45:35;100833.25;;;6.11;100.00
33265;BME280;31404;53.974;-1.086;2023-04-28T05:50:35;100832.26;;;7.02;100.00
33265;BME280;31404;53.974;-1.086;2023-04-28T05:55:34;100835.08;;;6.38;100.00
33265;BME280;31404;53.974;-1.086;2023-04-28T06:00:34;100840.86;;;5.55;100.00
33265;BME280;31404;53.974;-1.086;2023-04-28T06:05:34;100843.16;;;7.02;100.00
33265;BME280;31404;53.974;-1.086;2023-04-28T06:10:34;100844.13;;;6.37;100.00
33265;BME280;31404;53.974;-1.086;2023-04-28T06:15:35;100839.58;;;6.01;100.00
33265;BME280;31404;53.974;-1.086;2023-04-28T06:20:35;100839.62;;;5.71;100.00
33265;BME280;31404;53.974;-1.086;2023-04-28T06:25:35;100838.52;;;6.89;100.00
33265;BME280;31404;53.974;-1.086;2023-04-28T06:30:34;100840.12;;;7.32;100.00
33265;BME280;31404;53.974;-1.086;2023-04-28T06:35:35;100842.94;;;5.28;100.00
33265;BME280;31404;53.974;-1.086;2023-04-28T06:40:34;100846.45;;;5.15;100.00
33265;BME280;31404;53.974;-1.086;2023-04-28T06:45:34;100842.89;;;5.61;100.00
33265;BME280;31404;53.974;-1.086;2023-04-28T06:50:36;100839.73;;;7.68;100.00
33265;BME280;31404;53.974;-1.086;2023-04-28T06:55:35;100844.32;;;7.27;100.00
33265;BME280;31404;53.974;-1.086;2023-04-28T07:00:35;100840.36;;;7.88;100.00
33265;BME280;31404;53.974;-1.086;2023-04-28T07:05:34;100853.09;;;5.38;100.00
33265;BME280;31404;53.974;-1.086;2023-04-28T07:10:34;100849.08;;;7.06;100.00
33265;BME280;31404;53.974;-1.086;2023-04-28T07:15:34;100845.85;;;6.69;100.00
33265;BME280;31404;53.974;-1.086;2023-04-28T07:20:35;100842.43;;;7.61;100.00
33265;BME280;31404;53.974;-1.086;2023-04-28T07:25:35;100848.22;;;7.55;100.00
33265;BME280;31404;53.974;-1.086;2023-04-28T07:30:35;100855.11;;;6.25;100.00
33265;BME280;31404;53.974;-1.086;2023-04-28T07:35:35;100860.39;;;9.30;100.00
33265;BME280;31404;53.974;-1.086;2023-04-28T07:40:34;100868.55;;;7.43;100.00
33265;BME280;31404;53.974;-1.086;2023-04-28T07:50:35;100879.98;;;7.21;100.00
33265;BME280;31404;53.974;-1.086;2023-04-28T07:55:32;100884.49;;;7.97;100.00
33265;BME280;31404;53.974;-1.086;2023-04-28T08:00:34;100889.74;;;10.42;100.00
33265;BME280;31404;53.974;-1.086;2023-04-28T08:05:34;100891.02;;;10.74;100.00
33265;BME280;31404;53.974;-1.086;2023-04-28T08:10:34;100898.72;;;11.33;100.00
33265;BME280;31404;53.974;-1.086;2023-04-28T08:15:34;100902.13;;;11.19;100.00
33265;BME280;31404;53.974;-1.086;2023-04-28T08:20:34;100902.87;;;11.63;100.00
33265;BME280;31404;53.974;-1.086;2023-04-28T08:25:34;100909.04;;;11.81;100.00
33265;BME280;31404;53.974;-1.086;2023-04-28T08:30:34;100914.02;;;10.49;100.00
33265;BME280;31404;53.974;-1.086;2023-04-28T08:35:34;100919.72;;;10.93;100.00
33265;BME280;31404;53.974;-1.086;2023-04-28T08:40:36;100931.05;;;10.76;100.00
33265;BME280;31404;53.974;-1.086;2023-04-28T08:50:35;100947.09;;;11.03;100.00
33265;BME280;31404;53.974;-1.086;2023-04-28T08:55:35;100948.87;;;11.05;100.00
33265;BME280;31404;53.974;-1.086;2023-04-28T09:00:37;100950.82;;;10.84;100.00
33265;BME280;31404;53.974;-1.086;2023-04-28T09:05:35;100958.00;;;10.63;100.00
33265;BME280;31404;53.974;-1.086;2023-04-28T09:10:35;100966.32;;;11.13;100.00
33265;BME280;31404;53.974;-1.086;2023-04-28T09:15:36;100973.28;;;10.18;100.00
33265;BME280;31404;53.974;-1.086;2023-04-28T09:20:35;100984.70;;;9.60;100.00
33265;BME280;31404;53.974;-1.086;2023-04-28T09:25:35;100984.67;;;10.49;100.00
33265;BME280;31404;53.974;-1.086;2023-04-28T09:30:38;100992.91;;;10.02;100.00
33265;BME280;31404;53.974;-1.086;2023-04-28T09:45:38;101004.90;;;9.83;100.00
33265;BME280;31404;53.974;-1.086;2023-04-28T09:55:35;101003.34;;;10.67;100.00
33265;BME280;31404;53.974;-1.086;2023-04-28T10:00:35;101004.35;;;10.33;100.00
33265;BME280;31404;53.974;-1.086;2023-04-28T10:05:35;101015.07;;;10.41;100.00
33265;BME280;31404;53.974;-1.086;2023-04-28T10:10:34;101027.02;;;9.95;100.00
33265;BME280;31404;53.974;-1.086;2023-04-28T10:15:34;101032.93;;;10.34;100.00
33265;BME280;31404;53.974;-1.086;2023-04-28T10:20:34;101036.54;;;9.98;100.00
33265;BME280;31404;53.974;-1.086;2023-04-28T10:25:36;101039.90;;;10.46;100.00
33265;BME280;31404;53.974;-1.086;2023-04-28T10:30:35;101043.79;;;10.14;100.00
33265;BME280;31404;53.974;-1.086;2023-04-28T10:40:36;101062.49;;;10.23;100.00
33265;BME280;31404;53.974;-1.086;2023-04-28T10:50:35;101075.82;;;10.81;100.00
33265;BME280;31404;53.974;-1.086;2023-04-28T10:55:34;101084.92;;;10.72;100.00
33265;BME280;31404;53.974;-1.086;2023-04-28T11:00:35;101096.18;;;11.18;100.00
33265;BME280;31404;53.974;-1.086;2023-04-28T11:05:35;101097.62;;;9.66;100.00
33265;BME280;31404;53.974;-1.086;2023-04-28T11:15:35;101109.46;;;10.09;100.00
33265;BME280;31404;53.974;-1.086;2023-04-28T11:20:35;101110.28;;;9.62;100.00
33265;BME280;31404;53.974;-1.086;2023-04-28T11:30:34;101118.59;;;11.33;100.00
33265;BME280;31404;53.974;-1.086;2023-04-28T11:40:35;101116.11;;;12.20;100.00
33265;BME280;31404;53.974;-1.086;2023-04-28T11:45:35;101128.01;;;10.55;100.00
33265;BME280;31404;53.974;-1.086;2023-04-28T11:50:36;101132.10;;;10.52;100.00
33265;BME280;31404;53.974;-1.086;2023-04-28T11:55:35;101143.30;;;9.98;100.00
33265;BME280;31404;53.974;-1.086;2023-04-28T12:00:35;101153.09;;;10.58;100.00
33265;BME280;31404;53.974;-1.086;2023-04-28T12:10:35;101171.60;;;10.31;100.00
33265;BME280;31404;53.974;-1.086;2023-04-28T12:20:36;101196.22;;;10.91;100.00
33265;BME280;31404;53.974;-1.086;2023-04-28T12:30:35;101213.81;;;10.58;100.00
33265;BME280;31404;53.974;-1.086;2023-04-28T12:35:34;101214.65;;;10.56;100.00
33265;BME280;31404;53.974;-1.086;2023-04-28T12:40:34;101216.40;;;12.01;97.95
33265;BME280;31404;53.974;-1.086;2023-04-28T12:45:34;101223.22;;;11.42;99.87
33265;BME280;31404;53.974;-1.086;2023-04-28T12:50:34;101225.61;;;11.90;98.44
33265;BME280;31404;53.974;-1.086;2023-04-28T12:55:35;101228.62;;;12.13;96.98
33265;BME280;31404;53.974;-1.086;2023-04-28T13:00:34;101239.85;;;11.39;99.06
33265;BME280;31404;53.974;-1.086;2023-04-28T13:05:34;101242.08;;;12.10;96.14
33265;BME280;31404;53.974;-1.086;2023-04-28T13:10:34;101249.60;;;11.99;96.18
33265;BME280;31404;53.974;-1.086;2023-04-28T13:15:34;101249.41;;;12.54;93.75
33265;BME280;31404;53.974;-1.086;2023-04-28T13:20:34;101256.53;;;12.31;95.26
33265;BME280;31404;53.974;-1.086;2023-04-28T13:25:35;101264.38;;;11.52;100.00
33265;BME280;31404;53.974;-1.086;2023-04-28T13:30:51;101268.93;;;11.47;98.51
33265;BME280;31404;53.974;-1.086;2023-04-28T13:35:34;101270.16;;;11.03;100.00
33265;BME280;31404;53.974;-1.086;2023-04-28T13:40:34;101274.58;;;11.20;100.00
33265;BME280;31404;53.974;-1.086;2023-04-28T13:45:34;101281.74;;;11.41;98.78
33265;BME280;31404;53.974;-1.086;2023-04-28T13:50:35;101287.97;;;11.37;97.96
33265;BME280;31404;53.974;-1.086;2023-04-28T13:55:34;101290.98;;;11.42;96.58
33265;BME280;31404;53.974;-1.086;2023-04-28T14:00:34;101295.45;;;10.35;100.00
33265;BME280;31404;53.974;-1.086;2023-04-28T14:05:35;101301.45;;;11.17;98.82
33265;BME280;31404;53.974;-1.086;2023-04-28T14:10:35;101304.83;;;11.69;97.27
33265;BME280;31404;53.974;-1.086;2023-04-28T14:15:35;101304.95;;;11.81;95.14
33265;BME280;31404;53.974;-1.086;2023-04-28T14:20:34;101308.40;;;12.24;95.50
33265;BME280;31404;53.974;-1.086;2023-04-28T14:25:35;101315.32;;;11.90;95.91
33265;BME280;31404;53.974;-1.086;2023-04-28T14:30:35;101315.31;;;12.64;92.55
33265;BME280;31404;53.974;-1.086;2023-04-28T14:35:35;101320.61;;;12.98;92.75
33265;BME280;31404;53.974;-1.086;2023-04-28T14:40:35;101326.41;;;12.05;92.85
33265;BME280;31404;53.974;-1.086;2023-04-28T14:45:35;101322.44;;;12.74;91.98
33265;BME280;31404;53.974;-1.086;2023-04-28T14:50:34;101326.74;;;12.15;92.35
33265;BME280;31404;53.974;-1.086;2023-04-28T14:55:34;101329.54;;;11.73;93.90
33265;BME280;31404;53.974;-1.086;2023-04-28T15:00:34;101336.16;;;11.51;95.08
33265;BME280;31404;53.974;-1.086;2023-04-28T15:05:34;101338.03;;;12.33;92.98
33265;BME280;31404;53.974;-1.086;2023-04-28T15:10:38;101337.36;;;12.95;91.93
33265;BME280;31404;53.974;-1.086;2023-04-28T15:15:35;101342.39;;;12.37;92.12
33265;BME280;31404;53.974;-1.086;2023-04-28T15:20:34;101345.63;;;11.73;93.47
33265;BME280;31404;53.974;-1.086;2023-04-28T15:25:34;101344.40;;;11.76;94.37
33265;BME280;31404;53.974;-1.086;2023-04-28T15:30:35;101348.88;;;10.33;100.00
33265;BME280;31404;53.974;-1.086;2023-04-28T15:35:35;101350.73;;;11.34;97.68
33265;BME280;31404;53.974;-1.086;2023-04-28T15:40:37;101358.01;;;12.48;93.44
33265;BME280;31404;53.974;-1.086;2023-04-28T15:45:35;101362.86;;;10.56;96.93
33265;BME280;31404;53.974;-1.086;2023-04-28T15:50:35;101366.62;;;11.46;97.12
33265;BME280;31404;53.974;-1.086;2023-04-28T15:55:34;101367.19;;;12.54;95.07
33265;BME280;31404;53.974;-1.086;2023-04-28T16:00:34;101375.34;;;12.01;94.76
33265;BME280;31404;53.974;-1.086;2023-04-28T16:05:34;101376.99;;;12.34;91.61
33265;BME280;31404;53.974;-1.086;2023-04-28T16:10:35;101386.44;;;12.32;93.70
33265;BME280;31404;53.974;-1.086;2023-04-28T16:15:35;101394.21;;;12.72;89.52
33265;BME280;31404;53.974;-1.086;2023-04-28T16:20:34;101399.51;;;12.11;93.49
33265;BME280;31404;53.974;-1.086;2023-04-28T16:25:35;101407.22;;;10.48;99.83
33265;BME280;31404;53.974;-1.086;2023-04-28T16:30:35;101410.01;;;12.69;90.96
33265;BME280;31404;53.974;-1.086;2023-04-28T16:35:35;101409.61;;;13.16;89.65
33265;BME280;31404;53.974;-1.086;2023-04-28T16:40:35;101408.68;;;13.57;87.95
33265;BME280;31404;53.974;-1.086;2023-04-28T16:45:34;101415.77;;;13.14;88.32
33265;BME280;31404;53.974;-1.086;2023-04-28T16:50:34;101413.96;;;13.69;87.84
33265;BME280;31404;53.974;-1.086;2023-04-28T16:55:34;101416.60;;;13.82;84.26
33265;BME280;31404;53.974;-1.086;2023-04-28T17:00:34;101419.95;;;13.98;83.38
33265;BME280;31404;53.974;-1.086;2023-04-28T17:05:35;101423.96;;;11.36;91.68
33265;BME280;31404;53.974;-1.086;2023-04-28T17:10:36;101419.92;;;14.45;81.51
33265;BME280;31404;53.974;-1.086;2023-04-28T17:15:35;101426.57;;;13.84;80.51
33265;BME280;31404;53.974;-1.086;2023-04-28T17:20:35;101425.50;;;14.66;75.94
33265;BME280;31404;53.974;-1.086;2023-04-28T17:25:37;101423.65;;;15.74;69.88
33265;BME280;31404;53.974;-1.086;2023-04-28T17:30:35;101429.52;;;14.75;76.01
33265;BME280;31404;53.974;-1.086;2023-04-28T17:40:34;101436.02;;;16.40;67.86
33265;BME280;31404;53.974;-1.086;2023-04-28T17:45:34;101440.48;;;17.18;64.62
33265;BME280;31404;53.974;-1.086;2023-04-28T17:50:35;101443.27;;;16.39;66.18
33265;BME280;31404;53.974;-1.086;2023-04-28T17:55:35;101439.01;;;17.81;63.23
33265;BME280;31404;53.974;-1.086;2023-04-28T18:00:35;101445.53;;;16.98;64.85
33265;BME280;31404;53.974;-1.086;2023-04-28T18:05:34;101458.44;;;14.95;69.52
33265;BME280;31404;53.974;-1.086;2023-04-28T18:10:34;101460.05;;;15.86;67.15
33265;BME280;31404;53.974;-1.086;2023-04-28T18:15:34;101459.46;;;17.57;61.41
33265;BME280;31404;53.974;-1.086;2023-04-28T18:20:34;101460.09;;;18.47;59.99
33265;BME280;31404;53.974;-1.086;2023-04-28T18:25:34;101464.98;;;15.64;66.47
33265;BME280;31404;53.974;-1.086;2023-04-28T18:30:34;101465.00;;;15.66;65.63
33265;BME280;31404;53.974;-1.086;2023-04-28T18:35:35;101464.63;;;16.02;63.30
33265;BME280;31404;53.974;-1.086;2023-04-28T18:40:35;101473.75;;;15.70;63.36
33265;BME280;31404;53.974;-1.086;2023-04-28T18:45:36;101484.76;;;16.07;64.73
33265;BME280;31404;53.974;-1.086;2023-04-28T18:55:55;101490.93;;;17.10;62.37
33265;BME280;31404;53.974;-1.086;2023-04-28T19:00:34;101496.82;;;16.95;62.97
33265;BME280;31404;53.974;-1.086;2023-04-28T19:05:34;101497.32;;;17.48;61.36
33265;BME280;31404;53.974;-1.086;2023-04-28T19:10:35;101501.83;;;14.87;68.22
33265;BME280;31404;53.974;-1.086;2023-04-28T19:15:34;101502.53;;;15.24;67.37
33265;BME280;31404;53.974;-1.086;2023-04-28T19:20:34;101508.35;;;14.03;73.21
33265;BME280;31404;53.974;-1.086;2023-04-28T19:25:34;101514.49;;;13.59;74.89
33265;BME280;31404;53.974;-1.086;2023-04-28T19:30:34;101515.09;;;13.47;74.49
33265;BME280;31404;53.974;-1.086;2023-04-28T19:35:35;101522.25;;;15.05;70.89
33265;BME280;31404;53.974;-1.086;2023-04-28T19:40:35;101525.73;;;14.78;71.10
33265;BME280;31404;53.974;-1.086;2023-04-28T19:45:35;101530.92;;;15.68;68.73
33265;BME280;31404;53.974;-1.086;2023-04-28T19:50:35;101540.72;;;14.75;70.17
33265;BME280;31404;53.974;-1.086;2023-04-28T19:55:35;101546.50;;;15.46;67.26
33265;BME280;31404;53.974;-1.086;2023-04-28T20:00:35;101552.28;;;15.43;68.04
33265;BME280;31404;53.974;-1.086;2023-04-28T20:05:36;101560.16;;;15.55;67.65
33265;BME280;31404;53.974;-1.086;2023-04-28T20:10:35;101565.87;;;15.12;68.22
33265;BME280;31404;53.974;-1.086;2023-04-28T20:15:35;101573.98;;;14.13;72.70
33265;BME280;31404;53.974;-1.086;2023-04-28T20:20:35;101579.70;;;14.85;69.15
33265;BME280;31404;53.974;-1.086;2023-04-28T20:25:36;101584.79;;;12.83;77.82
33265;BME280;31404;53.974;-1.086;2023-04-28T20:30:40;101587.37;;;13.25;73.97
33265;BME280;31404;53.974;-1.086;2023-04-28T20:35:36;101595.08;;;12.50;77.66
33265;BME280;31404;53.974;-1.086;2023-04-28T20:40:34;101599.63;;;13.54;73.76
33265;BME280;31404;53.974;-1.086;2023-04-28T20:45:35;101600.25;;;14.05;72.14
33265;BME280;31404;53.974;-1.086;2023-04-28T20:50:36;101598.86;;;14.15;71.69
33265;BME280;31404;53.974;-1.086;2023-04-28T20:55:34;101606.58;;;14.16;71.10
33265;BME280;31404;53.974;-1.086;2023-04-28T21:00:34;101606.18;;;14.40;70.94
33265;BME280;31404;53.974;-1.086;2023-04-28T21:05:34;101613.39;;;14.44;70.18
33265;BME280;31404;53.974;-1.086;2023-04-28T21:10:35;101612.43;;;14.60;70.67
33265;BME280;31404;53.974;-1.086;2023-04-28T21:15:35;101625.67;;;13.52;73.26
33265;BME280;31404;53.974;-1.086;2023-04-28T21:20:35;101635.34;;;13.96;71.54
33265;BME280;31404;53.974;-1.086;2023-04-28T21:25:35;101634.18;;;13.32;75.19
33265;BME280;31404;53.974;-1.086;2023-04-28T21:30:35;101642.71;;;13.68;74.44
33265;BME280;31404;53.974;-1.086;2023-04-28T21:35:35;101640.13;;;13.13;75.71
33265;BME280;31404;53.974;-1.086;2023-04-28T21:40:35;101642.10;;;13.82;74.50
33265;BME280;31404;53.974;-1.086;2023-04-28T21:45:35;101639.02;;;12.88;76.03
33265;BME280;31404;53.974;-1.086;2023-04-28T21:50:35;101641.88;;;13.24;75.78
33265;BME280;31404;53.974;-1.086;2023-04-28T21:55:35;101651.17;;;11.14;84.93
33265;BME280;31404;53.974;-1.086;2023-04-28T22:00:38;101658.86;;;9.94;91.94
33265;BME280;31404;53.974;-1.086;2023-04-28T22:05:34;101650.54;;;11.76;84.00
33265;BME280;31404;53.974;-1.086;2023-04-28T22:10:35;101656.70;;;11.34;86.77
33265;BME280;31404;53.974;-1.086;2023-04-28T22:15:34;101662.40;;;11.06;87.30
33265;BME280;31404;53.974;-1.086;2023-04-28T22:20:35;101669.49;;;10.61;91.57
33265;BME280;31404;53.974;-1.086;2023-04-28T22:25:34;101670.88;;;11.07;89.59
33265;BME280;31404;53.974;-1.086;2023-04-28T22:30:34;101669.78;;;10.82;88.00
33265;BME280;31404;53.974;-1.086;2023-04-28T22:35:34;101665.68;;;10.75;92.06
33265;BME280;31404;53.974;-1.086;2023-04-28T22:40:35;101669.59;;;11.10;90.24
33265;BME280;31404;53.974;-1.086;2023-04-28T22:45:34;101680.24;;;9.61;96.62
33265;BME280;31404;53.974;-1.086;2023-04-28T22:50:34;101677.75;;;11.15;90.14
33265;BME280;31404;53.974;-1.086;2023-04-28T22:55:34;101678.83;;;10.85;89.26
33265;BME280;31404;53.974;-1.086;2023-04-28T23:00:36;101688.48;;;10.08;94.81
33265;BME280;31404;53.974;-1.086;2023-04-28T23:05:36;101685.66;;;9.75;96.33
33265;BME280;31404;53.974;-1.086;2023-04-28T23:10:35;101684.85;;;10.72;91.76
33265;BME280;31404;53.974;-1.086;2023-04-28T23:15:35;101687.57;;;10.75;89.85
33265;BME280;31404;53.974;-1.086;2023-04-28T23:20:34;101686.16;;;10.45;92.16
33265;BME280;31404;53.974;-1.086;2023-04-28T23:25:35;101692.81;;;11.27;86.67
33265;BME280;31404;53.974;-1.086;2023-04-28T23:30:35;101700.86;;;11.42;85.26
33265;BME280;31404;53.974;-1.086;2023-04-28T23:35:35;101706.51;;;11.38;85.22
33265;BME280;31404;53.974;-1.086;2023-04-28T23:40:35;101707.90;;;11.10;90.57
33265;BME280;31404;53.974;-1.086;2023-04-28T23:45:35;101710.32;;;11.71;85.23
33265;BME280;31404;53.974;-1.086;2023-04-28T23:50:35;101711.04;;;11.57;83.53
33265;BME280;31404;53.974;-1.086;2023-04-28T23:55:35;101708.74;;;12.04;83.01
